• Join FlightAware (Why Join?)
  • Login
  • US Flag 
02:50PM EDT


 

Airport Tracker/Info


-or-


 

Live Flight TrackerFlight Track Log ✈ N22HP ✈ 15-Jul-2013 ✈ KBCT - KDTO

Flight Track Log - Related Links

Times and Time Zones

All times are in EDT time to prevent confusion due to time zone crossing. See the N22HP flight status page for this flight to view local times or setup timezone preferences in your user account.

Time Position Orientation Groundspeed Altitude Reporting Facility
EDT Latitude Longitude Course Direction KTS MPH feet Rate Location/Type
09:14AM 26.4653 -80.0569 322° Northwest 157 181 3,800  Level Miami Center
09:15AM 26.4981 -80.0881 320° Northwest 159 183 5,000 1,200 Climbing Miami Center
09:16AM 26.5300 -80.1492 300° West 195 224 6,200 1,440 Climbing Miami Center
09:17AM 26.5453 -80.2078 286° West 202 232 7,900 1,500 Climbing Miami Center
09:18AM 26.6051 -80.4218 318° Northwest  Level FlightAware Approximate
09:18AM 26.5525 -80.2614 279° West 196 226 9,300  Level Miami Center
09:19AM 26.6641 -80.4769 322° Northwest  Level FlightAware Approximate
09:19AM 26.5614 -80.3289 278° West 201 231 10,900  Level Miami Center
09:20AM 26.7248 -80.5300 322° Northwest  Level FlightAware Approximate
09:20AM 26.5642 -80.3847 273° West 201 231 12,500  Level Miami Center
09:21AM 26.5708 -80.4547 276° West 201 231 14,100 1,440 Climbing Miami Center
09:22AM 26.6094 -80.4975 315° West 196 226 15,400 960 Climbing Miami Center
09:23AM 26.6603 -80.5525 316° Northwest 223 257 16,100 1,200 Climbing Miami Center
09:24AM 26.7008 -80.5958 316° Northwest 236 272 17,800 1,500 Climbing Miami Center
09:25AM 26.7497 -80.6486 316° Northwest 231 266 19,200 1,200 Climbing Miami Center
09:26AM 26.7925 -80.6917 318° Northwest 231 266 20,300 1,080 Climbing Miami Center
09:27AM 26.8369 -80.7444 313° West 231 266 21,400 1,080 Climbing Miami Center
09:28AM 26.8878 -80.7972 317° Northwest 231 266 22,500 780 Climbing Miami Center
09:29AM 26.9342 -80.8525 313° West 236 272 23,000 900 Climbing Miami Center
09:30AM 26.9828 -80.9053 316° Northwest 236 272 24,300 1,140 Climbing Miami Center
09:31AM 27.0294 -80.9536 317° Northwest 236 272 25,300 840 Climbing Miami Center
09:32AM 27.0781 -81.0089 315° West 236 272 26,000 300 Climbing Miami Center
09:33AM 27.1308 -81.0644 317° Northwest 241 277 26,000  Level Miami Center
09:34AM 27.1875 -81.1272 315° West 263 303 26,000  Level Miami Center
09:35AM 27.2481 -81.1903 317° Northwest 283 326 26,000  Level Miami Center
09:36AM 27.3067 -81.2603 313° West 295 339 26,000  Level Miami Center
09:37AM 27.3672 -81.3281 315° West 301 346 26,000  Level Miami Center
09:38AM 27.4339 -81.3961 318° Northwest 301 346 26,000  Level Miami Center
09:39AM 27.4944 -81.4639 315° West 301 346 26,000  Level Miami Center
09:40AM 27.5486 -81.5247 315° West 301 346 26,000  Level Miami Center
09:41AM 27.6072 -81.5881 316° Northwest 301 346 26,000  Level Miami Center
09:42AM 27.6736 -81.6633 315° West 301 346 26,000  Level Miami Center
09:43AM 27.7339 -81.7317 315° West 301 346 26,000  Level Miami Center
09:44AM 27.7942 -81.7975 316° Northwest 301 346 26,000  Level Miami Center
09:46AM 27.9064 -81.9228 315° West 308 354 26,000  Level Jacksonville Center
09:47AM 27.9653 -81.9903 315° West 303 349 26,000  Level Jacksonville Center
09:48AM 28.0325 -82.0556 319° Northwest 303 349 26,000  Level Jacksonville Center
09:49AM 28.0975 -82.1139 322° Northwest 303 349 26,000  Level Jacksonville Center
09:50AM 28.1625 -82.1744 321° Northwest 303 349 26,000  Level Jacksonville Center
09:51AM 28.2275 -82.2306 323° Northwest 303 349 26,000  Level Jacksonville Center
09:52AM 28.2925 -82.2892 322° Northwest 303 349 26,000  Level Jacksonville Center
09:53AM 28.3553 -82.3431 323° Northwest 303 349 26,000  Level Jacksonville Center
09:54AM 28.4181 -82.4017 321° Northwest 303 349 26,000  Level Jacksonville Center
09:55AM 28.4811 -82.4581 322° Northwest 303 349 26,000  Level Jacksonville Center
09:56AM 28.5439 -82.5169 321° Northwest 298 343 26,000  Level Jacksonville Center
09:57AM 28.6067 -82.5733 322° Northwest 298 343 26,000  Level Jacksonville Center
09:58AM 28.6692 -82.6300 322° Northwest 293 337 26,000  Level Jacksonville Center
09:59AM 28.7403 -82.6936 322° Northwest 288 331 26,000  Level Jacksonville Center
10:00AM 28.8072 -82.7528 322° Northwest 293 337 26,000  Level Jacksonville Center
10:01AM 28.8719 -82.8119 321° Northwest 303 349 26,000  Level Jacksonville Center
10:02AM 28.9389 -82.8711 322° Northwest 303 349 26,000  Level Jacksonville Center
10:03AM 29.0078 -82.9331 322° Northwest 303 349 26,000  Level Jacksonville Center
10:04AM 29.0639 -82.9853 321° Northwest 303 349 26,000  Level Jacksonville Center
10:05AM 29.1308 -83.0469 321° Northwest 308 354 26,000  Level Jacksonville Center
10:06AM 29.1953 -83.1067 321° Northwest 308 354 26,000  Level Jacksonville Center
10:07AM 29.2619 -83.1686 321° Northwest 308 354 26,000  Level Jacksonville Center
10:08AM 29.3244 -83.2283 320° Northwest 303 349 26,000  Level Jacksonville Center
10:09AM 29.3911 -83.2883 322° Northwest 303 349 26,000  Level Jacksonville Center
10:10AM 29.4578 -83.3506 321° Northwest 303 349 26,000  Level Jacksonville Center
10:11AM 29.5222 -83.4081 322° Northwest 303 349 26,000  Level Jacksonville Center
10:12AM 29.5889 -83.4706 321° Northwest 303 349 26,000  Level Jacksonville Center
10:13AM 29.6553 -83.5331 321° Northwest 303 349 26,000  Level Jacksonville Center
10:14AM 29.7028 -83.6172 303° West 303 349 26,000  Level Jacksonville Center
10:15AM 29.7461 -83.7011 301° West 303 349 26,000  Level Jacksonville Center
10:16AM 29.7936 -83.7828 304° West 308 354 26,000  Level Jacksonville Center
10:17AM 29.8369 -83.8647 301° West 303 349 26,000  Level Jacksonville Center
10:18AM 29.8822 -83.9467 303° West 303 349 26,000  Level Jacksonville Center
10:19AM 29.9233 -84.0261 301° West 298 343 26,000  Level Jacksonville Center
10:20AM 29.9683 -84.1058 303° West 298 343 26,000  Level Jacksonville Center
10:21AM 30.0156 -84.1953 301° West 298 343 26,000  Level Jacksonville Center
10:22AM 30.0586 -84.2750 302° West 298 343 26,000  Level Jacksonville Center
10:23AM 30.1017 -84.3547 302° West 298 343 26,000  Level Jacksonville Center
10:24AM 30.1444 -84.4369 301° West 298 343 26,000  Level Jacksonville Center
10:25AM 30.1894 -84.5172 303° West 298 343 26,000  Level Jacksonville Center
10:26AM 30.2300 -84.5972 300° West 298 343 26,000  Level Jacksonville Center
10:27AM 30.2750 -84.6772 303° West 298 343 26,000  Level Jacksonville Center
10:28AM 30.3175 -84.7600 301° West 298 343 26,000  Level Jacksonville Center
10:29AM 30.3433 -84.8494 289° West 298 343 26,000  Level Jacksonville Center
10:30AM 30.3586 -84.9436 281° West 298 343 26,000  Level Jacksonville Center
10:31AM 30.3717 -85.0378 279° West 298 343 26,000  Level Jacksonville Center
10:32AM 30.3847 -85.1344 279° West 298 343 26,000  Level Jacksonville Center
10:33AM 30.3997 -85.2264 281° West 298 343 26,000  Level Jacksonville Center
10:34AM 30.4125 -85.3228 279° West 298 343 26,000  Level Jacksonville Center
10:35AM 30.4272 -85.4172 280° West 298 343 26,000  Level Jacksonville Center
10:36AM 30.4422 -85.5117 280° West 298 343 26,000  Level Jacksonville Center
10:37AM 30.4547 -85.6083 279° West 298 343 26,000  Level Jacksonville Center
10:38AM 30.4694 -85.7028 280° West 298 343 26,000  Level Jacksonville Center
10:39AM 30.4817 -85.7994 278° West 298 343 26,000  Level Jacksonville Center
10:40AM 30.4942 -85.8964 279° West 298 343 26,000  Level Jacksonville Center
10:41AM 30.5106 -85.9933 281° West 298 343 26,000  Level Jacksonville Center
10:42AM 30.5228 -86.0900 278° West 298 343 26,000  Level Jacksonville Center
10:43AM 30.5372 -86.1869 280° West 298 343 26,000  Level Jacksonville Center
10:44AM 30.5492 -86.2814 278° West 298 343 26,000  Level Jacksonville Center
10:45AM 30.5656 -86.3761 281° West 304 350 26,000  Level Jacksonville Center
10:46AM 30.5756 -86.4658 277° West 304 350 26,000  Level Jacksonville Center
10:47AM 30.5894 -86.5628 279° West 304 350 26,000  Level Jacksonville Center
10:48AM 30.6033 -86.6550 280° West 304 350 26,000  Level Jacksonville Center
10:49AM 30.6153 -86.7519 278° West 304 350 26,000  Level Jacksonville Center
10:50AM 30.6267 -86.8514 278° West 304 350 26,000  Level Jacksonville Center
10:51AM 30.6425 -86.9464 281° West 309 356 26,000  Level Jacksonville Center
10:52AM 30.6558 -87.0531 278° West 309 356 26,000  Level Jacksonville Center
10:53AM 30.6672 -87.1503 278° West 314 361 26,000  Level Jacksonville Center
10:54AM 30.6806 -87.2497 279° West 314 361 26,000  Level Jacksonville Center
10:56AM 30.7011 -87.4008 279° West 304 350 26,000  Level Houston Center
10:57AM 30.7164 -87.5147 279° West 298 343 26,000  Level Houston Center
10:58AM 30.7281 -87.6083 278° West 294 338 26,000  Level Houston Center
10:59AM 30.7400 -87.7022 278° West 294 338 26,000  Level Houston Center
11:00AM 30.7525 -87.8094 278° West 297 342 26,000  Level Houston Center
11:01AM 30.7642 -87.9042 278° West 298 343 26,000  Level Houston Center
11:02AM 30.7761 -87.9989 278° West 298 343 26,000  Level Houston Center
11:03AM 30.7881 -88.0936 278° West 298 343 26,000  Level Houston Center
11:04AM 30.7992 -88.1889 278° West 298 343 26,000  Level Houston Center
11:05AM 30.8094 -88.2842 277° West 298 343 26,000  Level Houston Center
11:06AM 30.8233 -88.3989 278° West 299 344 26,000  Level Houston Center
11:07AM 30.8358 -88.4942 279° West 299 344 26,000  Level Houston Center
11:08AM 30.8475 -88.5886 278° West 298 343 26,000  Level Houston Center
11:09AM 30.8575 -88.6806 277° West 302 348 26,000  Level Houston Center
11:10AM 30.8692 -88.7761 278° West 299 344 26,000  Level Houston Center
11:11AM 30.8828 -88.8917 278° West 301 346 26,000  Level Houston Center
11:12AM 30.8956 -88.9894 279° West 298 343 26,000  Level Houston Center
11:13AM 30.9067 -89.0850 278° West 300 345 26,000  Level Houston Center
11:15AM 30.9183 -89.1800 278° West 300 345 26,000  Level Houston Center
11:16AM 30.9286 -89.2750 277° West 299 344 26,000  Level Houston Center
11:17AM 30.9392 -89.3706 277° West 300 345 26,000  Level Houston Center
11:18AM 30.9528 -89.4858 278° West 301 346 26,000  Level Houston Center
11:19AM 30.9636 -89.5836 277° West 306 352 26,000  Level Houston Center
11:20AM 30.9747 -89.6778 278° West 298 343 26,000  Level Houston Center
11:21AM 30.9867 -89.7736 278° West 299 344 26,000  Level Houston Center
11:22AM 30.9964 -89.8719 277° West 305 351 26,000  Level Houston Center
11:23AM 31.0094 -89.9869 278° West 302 348 26,000  Level Houston Center
11:24AM 31.0206 -90.0839 278° West 302 348 26,000  Level Houston Center
11:25AM 31.0300 -90.1803 277° West 299 344 26,000  Level Houston Center
11:26AM 31.0408 -90.2753 278° West 296 341 26,000  Level Houston Center
11:27AM 31.0506 -90.3722 277° West 299 344 26,000  Level Houston Center
11:28AM 31.0625 -90.4869 277° West 295 339 26,000  Level Houston Center
11:29AM 31.0725 -90.5831 277° West 298 343 26,000  Level Houston Center
11:30AM 31.0831 -90.6797 277° West 300 345 26,000  Level Houston Center
11:31AM 31.0931 -90.7761 277° West 299 344 26,000  Level Houston Center
11:32AM 31.1033 -90.8717 277° West 296 341 26,000  Level Houston Center
11:33AM 31.1128 -90.9672 277° West 293 337 26,000  Level Houston Center
11:34AM 31.1242 -91.0817 277° West 295 339 26,000  Level Houston Center
11:35AM 31.1344 -91.1761 277° West 294 338 26,000  Level Houston Center
11:36AM 31.1528 -91.2708 283° West 298 343 26,000  Level Houston Center
11:37AM 31.1758 -91.3650 286° West 302 348 26,000  Level Houston Center
11:38AM 31.2025 -91.4733 286° West 302 348 26,000  Level Houston Center
11:39AM 31.2242 -91.5686 285° West 303 349 26,000  Level Houston Center
11:40AM 31.2478 -91.6619 287° West 301 346 26,000  Level Houston Center
11:41AM 31.2708 -91.7561 286° West 301 346 26,000  Level Houston Center
11:42AM 31.2925 -91.8508 285° West 302 348 26,000  Level Houston Center
11:44AM 31.3203 -91.9642 286° West 303 349 26,000  Level Houston Center
11:45AM 31.3414 -92.0592 285° West 301 346 26,000  Level Houston Center
11:46AM 31.3625 -92.1542 285° West 301 346 26,000  Level Houston Center
11:47AM 31.3872 -92.2497 287° West 304 350 26,000  Level Houston Center
11:48AM 31.4092 -92.3431 285° West 301 346 26,000  Level Houston Center
11:49AM 31.4319 -92.4372 286° West 301 346 26,000  Level Houston Center
11:50AM 31.4600 -92.5506 286° West 303 349 26,000  Level Houston Center
11:51AM 31.4806 -92.6450 284° West 302 348 26,000  Level Houston Center
11:52AM 31.5019 -92.7386 285° West 299 344 26,000  Level Houston Center
11:53AM 31.5242 -92.8325 286° West 300 345 26,000  Level Houston Center
11:54AM 31.5453 -92.9261 285° West 299 344 26,000  Level Houston Center
11:55AM 31.5589 -93.0403 278° West 299 344 26,000  Level Houston Center
11:56AM 31.5625 -93.1381 273° West 301 346 26,000  Level Houston Center
11:57AM 31.5664 -93.2347 273° West 299 344 26,000  Level Houston Center
11:58AM 31.5706 -93.3242 273° West 297 342 26,000  Level Houston Center
11:59AM 31.5761 -93.4411 273° West 300 345 26,000  Level Houston Center
12:00PM 31.5814 -93.5369 274° West 298 343 26,000  Level Houston Center
12:01PM 31.5939 -93.6378 278° West 290 334 26,000  Level Houston Center
12:02PM 31.6169 -93.7283 287° West 291 335 26,000  Level Houston Center
12:03PM 31.6389 -93.8189 286° West 289 333 26,000  Level Houston Center
12:04PM 31.6603 -93.9056 286° West 279 321 26,000  Level Houston Center
12:05PM 31.6800 -93.9919 285° West 276 318 26,000  Level Houston Center
12:06PM 31.7008 -94.0786 286° West 278 320 26,000  Level Houston Center
12:07PM 31.7256 -94.1842 285° West 280 322 26,000  Level Houston Center
12:08PM 31.7469 -94.2725 286° West 283 326 26,000  Level Houston Center
12:09PM 31.7681 -94.3600 286° West 281 323 26,000  Level Houston Center
12:11PM 31.8019 -94.5094 285° West 277 319 26,000  Level Fort Worth Center
12:12PM 31.8206 -94.5919 285° West 282 325 26,000  Level Fort Worth Center
12:13PM 31.8414 -94.6817 285° West 282 325 26,000  Level Fort Worth Center
12:14PM 31.8622 -94.7717 285° West 282 325 26,000 -180 Level Fort Worth Center
12:15PM 31.8828 -94.8642 285° West 282 325 25,700 -600 Descending Fort Worth Center
12:16PM 31.9056 -94.9589 286° West 293 337 24,800 -960 Descending Fort Worth Center
12:17PM 31.9261 -95.0586 284° West 304 350 23,800 -1,020 Descending Fort Worth Center
12:18PM 31.9489 -95.1583 285° West 310 357 22,800 -1,020 Descending Fort Worth Center
12:19PM 31.9717 -95.2558 285° West 317 365 21,800 -1,020 Descending Fort Worth Center
12:20PM 31.9942 -95.3533 285° West 312 359 20,800 -1,020 Descending Fort Worth Center
12:21PM 32.0142 -95.4436 285° West 305 351 19,800 -900 Descending Fort Worth Center
12:22PM 32.0344 -95.5314 285° West 293 337 19,000 -1,020 Descending Fort Worth Center
12:23PM 32.0567 -95.6289 285° West 288 331 17,800 -1,140 Descending Fort Worth Center
12:24PM 32.0747 -95.7192 283° West 283 326 16,800 -1,020 Descending Fort Worth Center
12:25PM 32.0925 -95.8072 283° West 278 320 15,800 -960 Descending Fort Worth Center
12:26PM 32.1144 -95.8925 287° West 278 320 14,900 -960 Descending Fort Worth Center
12:27PM 32.1342 -95.9806 285° West 278 320 13,900 -960 Descending Fort Worth Center
12:28PM 32.1497 -96.0639 282° West 278 320 13,000 -960 Descending Fort Worth Center
12:29PM 32.1717 -96.1494 287° West 278 320 12,000 -1,020 Descending Fort Worth Center
12:30PM 32.1892 -96.2325 284° West 278 320 11,000 -900 Descending Fort Worth Center
12:31PM 32.2086 -96.3083 287° West 267 307 10,200 -900 Descending Fort Worth Center
12:32PM 32.2322 -96.3844 290° West 244 281 9,300 -900 Descending Fort Worth Center
12:33PM 32.2517 -96.4628 286° West 244 281 8,400 -960 Descending Fort Worth Center
12:34PM 32.2731 -96.5411 288° West 244 281 7,400 -840 Descending Fort Worth Center
12:35PM 32.3069 -96.6072 301° West 244 281 6,800 -720 Descending Fort Worth Center
12:36PM 32.3531 -96.6683 312° West 246 283 6,000 -420 Descending Fort Worth Center
12:37PM 32.3764 -96.7344 293° West 238 274 6,000 -360 Level Fort Worth Center
12:38PM 32.4019 -96.8081 292° West 228 262 5,300 -900 Descending Fort Worth Center
12:39PM 32.4231 -96.8819 289° West 234 269 4,200 -660 Descending Fort Worth Center
12:40PM 32.4422 -96.9556 287° West 241 277 4,000 -120 Descending Fort Worth Center
12:41PM 32.4633 -97.0269 289° West 241 277 4,000  Level Fort Worth Center
12:42PM 32.4969 -97.0833 305° West 217 250 4,000  Level Fort Worth Center
12:43PM 32.5325 -97.1447 304° West 222 255 4,000  Level Fort Worth Center
12:44PM 32.5722 -97.1989 311° West 222 255 4,000  Level Fort Worth Center
12:45PM 32.6328 -97.2258 339° North 217 250 4,000  Level Fort Worth Center
12:46PM 32.7333 -97.2500 349° North 224 258 4,000  Level Dallas / Fort Worth TRACON
12:47PM 32.7833 -97.2667 344° North 224 258 4,000  Level Dallas / Fort Worth TRACON
12:48PM 32.8333 -97.2667 360° North 212 244 4,000  Level Dallas / Fort Worth TRACON
12:50PM 32.9000 -97.3000 337° Northwest 207 238 4,000  Level Dallas / Fort Worth TRACON
12:50PM 32.9500 -97.3000 360° North 209 241 4,000  Level Dallas / Fort Worth TRACON
12:51PM 33.0000 -97.3167 344° North 208 239 4,000  Level Dallas / Fort Worth TRACON
12:52PM 33.0667 -97.3333 348° North 209 241 4,000  Level Dallas / Fort Worth TRACON
12:53PM 33.1167 -97.3500 344° North 209 241 4,000 -180 Level Dallas / Fort Worth TRACON
12:54PM 33.1833 -97.3500 360° North 212 244 3,700 -600 Descending Dallas / Fort Worth TRACON
12:55PM 33.2333 -97.3333 16° North 209 241 2,800 -840 Descending Dallas / Fort Worth TRACON
12:56PM 33.2667 -97.2833 51° Northeast 202 232 2,100 -780 Descending Dallas / Fort Worth TRACON